sensor_id;sensor_type;location;lat;lon;timestamp;temperature;humidity
15483;DHT22;7843;50.330;7.312;2022-12-18T00:01:35;-11.80;99.90
15483;DHT22;7843;50.330;7.312;2022-12-18T00:04:05;-11.70;99.90
15483;DHT22;7843;50.330;7.312;2022-12-18T00:06:33;-11.60;99.90
15483;DHT22;7843;50.330;7.312;2022-12-18T00:09:00;-11.60;99.90
15483;DHT22;7843;50.330;7.312;2022-12-18T00:11:29;-11.60;99.90
15483;DHT22;7843;50.330;7.312;2022-12-18T00:13:57;-11.60;99.90
15483;DHT22;7843;50.330;7.312;2022-12-18T00:16:26;-11.50;99.90
15483;DHT22;7843;50.330;7.312;2022-12-18T00:18:55;-11.50;99.90
15483;DHT22;7843;50.330;7.312;2022-12-18T00:21:22;-11.60;99.90
15483;DHT22;7843;50.330;7.312;2022-12-18T00:23:50;-11.60;99.90
15483;DHT22;7843;50.330;7.312;2022-12-18T00:26:22;-11.70;99.90
15483;DHT22;7843;50.330;7.312;2022-12-18T00:28:49;-11.70;99.90
15483;DHT22;7843;50.330;7.312;2022-12-18T00:31:22;-11.70;99.90
15483;DHT22;7843;50.330;7.312;2022-12-18T00:33:50;-11.70;99.90
15483;DHT22;7843;50.330;7.312;2022-12-18T00:36:19;-11.80;99.90
15483;DHT22;7843;50.330;7.312;2022-12-18T00:38:47;-11.80;99.90
15483;DHT22;7843;50.330;7.312;2022-12-18T00:41:16;-11.80;99.90
15483;DHT22;7843;50.330;7.312;2022-12-18T00:44:04;-11.80;99.90
15483;DHT22;7843;50.330;7.312;2022-12-18T00:46:31;-11.80;99.90
15483;DHT22;7843;50.330;7.312;2022-12-18T00:48:58;-11.70;99.90
15483;DHT22;7843;50.330;7.312;2022-12-18T00:51:25;-11.80;99.90
15483;DHT22;7843;50.330;7.312;2022-12-18T00:53:52;-11.80;99.90
15483;DHT22;7843;50.330;7.312;2022-12-18T00:56:19;-11.80;99.90
15483;DHT22;7843;50.330;7.312;2022-12-18T00:58:45;-11.80;99.90
15483;DHT22;7843;50.330;7.312;2022-12-18T01:01:12;-11.80;99.90
15483;DHT22;7843;50.330;7.312;2022-12-18T01:03:39;-11.80;99.90
15483;DHT22;7843;50.330;7.312;2022-12-18T01:06:10;-11.90;99.90
15483;DHT22;7843;50.330;7.312;2022-12-18T01:08:38;-11.80;99.90
15483;DHT22;7843;50.330;7.312;2022-12-18T01:11:10;-11.70;99.90
15483;DHT22;7843;50.330;7.312;2022-12-18T01:13:38;-11.80;99.90
15483;DHT22;7843;50.330;7.312;2022-12-18T01:16:06;-11.70;99.90
15483;DHT22;7843;50.330;7.312;2022-12-18T01:18:33;-11.70;99.90
15483;DHT22;7843;50.330;7.312;2022-12-18T01:20:59;-11.70;99.90
15483;DHT22;7843;50.330;7.312;2022-12-18T01:23:26;-11.70;99.90
15483;DHT22;7843;50.330;7.312;2022-12-18T01:25:52;-11.70;99.90
15483;DHT22;7843;50.330;7.312;2022-12-18T01:28:19;-11.70;99.90
15483;DHT22;7843;50.330;7.312;2022-12-18T01:30:46;-11.80;99.90
15483;DHT22;7843;50.330;7.312;2022-12-18T01:33:12;-11.80;99.90
15483;DHT22;7843;50.330;7.312;2022-12-18T01:35:42;-11.80;99.90
15483;DHT22;7843;50.330;7.312;2022-12-18T01:38:09;-11.80;99.90
15483;DHT22;7843;50.330;7.312;2022-12-18T01:40:36;-11.90;99.90
15483;DHT22;7843;50.330;7.312;2022-12-18T01:43:03;-11.90;99.90
15483;DHT22;7843;50.330;7.312;2022-12-18T01:45:31;-12.00;99.90
15483;DHT22;7843;50.330;7.312;2022-12-18T01:48:16;-12.10;99.90
15483;DHT22;7843;50.330;7.312;2022-12-18T01:50:43;-12.20;99.90
15483;DHT22;7843;50.330;7.312;2022-12-18T01:55:47;-12.40;99.90
15483;DHT22;7843;50.330;7.312;2022-12-18T01:58:15;-12.40;99.90
15483;DHT22;7843;50.330;7.312;2022-12-18T02:00:42;-12.40;99.90
15483;DHT22;7843;50.330;7.312;2022-12-18T02:03:10;-12.50;99.90
15483;DHT22;7843;50.330;7.312;2022-12-18T02:06:00;-12.50;99.90
15483;DHT22;7843;50.330;7.312;2022-12-18T02:11:20;-12.70;99.90
15483;DHT22;7843;50.330;7.312;2022-12-18T02:14:16;-12.80;99.90
15483;DHT22;7843;50.330;7.312;2022-12-18T02:22:22;-12.90;99.90
15483;DHT22;7843;50.330;7.312;2022-12-18T02:27:37;-13.00;99.90
15483;DHT22;7843;50.330;7.312;2022-12-18T02:30:06;-13.10;99.90
15483;DHT22;7843;50.330;7.312;2022-12-18T02:32:52;-13.10;99.90
15483;DHT22;7843;50.330;7.312;2022-12-18T02:35:28;-13.20;99.90
15483;DHT22;7843;50.330;7.312;2022-12-18T02:37:56;-13.20;99.90
15483;DHT22;7843;50.330;7.312;2022-12-18T02:40:26;-13.20;99.90
15483;DHT22;7843;50.330;7.312;2022-12-18T02:42:53;-13.30;99.90
15483;DHT22;7843;50.330;7.312;2022-12-18T02:45:20;-13.30;99.90
15483;DHT22;7843;50.330;7.312;2022-12-18T02:47:48;-13.30;99.90
15483;DHT22;7843;50.330;7.312;2022-12-18T02:51:08;-13.40;99.90
15483;DHT22;7843;50.330;7.312;2022-12-18T02:53:26;-13.40;99.90
15483;DHT22;7843;50.330;7.312;2022-12-18T03:04:04;-13.40;99.90
15483;DHT22;7843;50.330;7.312;2022-12-18T03:06:40;-13.50;99.90
15483;DHT22;7843;50.330;7.312;2022-12-18T03:09:11;-13.40;99.90
15483;DHT22;7843;50.330;7.312;2022-12-18T03:11:41;-13.40;99.90
15483;DHT22;7843;50.330;7.312;2022-12-18T03:14:30;-13.40;99.90
15483;DHT22;7843;50.330;7.312;2022-12-18T03:17:05;-13.40;99.90
15483;DHT22;7843;50.330;7.312;2022-12-18T03:19:39;-13.40;99.90
15483;DHT22;7843;50.330;7.312;2022-12-18T03:22:07;-13.50;99.90
15483;DHT22;7843;50.330;7.312;2022-12-18T03:24:37;-13.50;99.90
15483;DHT22;7843;50.330;7.312;2022-12-18T03:27:10;-13.50;99.90
15483;DHT22;7843;50.330;7.312;2022-12-18T03:29:48;-13.50;99.90
15483;DHT22;7843;50.330;7.312;2022-12-18T03:32:28;-13.50;99.90
15483;DHT22;7843;50.330;7.312;2022-12-18T03:34:59;-13.60;99.90
15483;DHT22;7843;50.330;7.312;2022-12-18T03:37:27;-13.60;99.90
15483;DHT22;7843;50.330;7.312;2022-12-18T03:39:54;-13.60;99.90
15483;DHT22;7843;50.330;7.312;2022-12-18T03:42:37;-13.50;99.90
15483;DHT22;7843;50.330;7.312;2022-12-18T03:45:11;-13.50;99.90
15483;DHT22;7843;50.330;7.312;2022-12-18T03:47:52;-13.40;99.90
15483;DHT22;7843;50.330;7.312;2022-12-18T03:50:40;-13.50;99.90
15483;DHT22;7843;50.330;7.312;2022-12-18T03:55:59;-13.50;99.90
15483;DHT22;7843;50.330;7.312;2022-12-18T03:58:28;-13.50;99.90
15483;DHT22;7843;50.330;7.312;2022-12-18T04:00:57;-13.50;99.90
15483;DHT22;7843;50.330;7.312;2022-12-18T04:03:27;-13.40;99.90
15483;DHT22;7843;50.330;7.312;2022-12-18T04:05:55;-13.40;99.90
15483;DHT22;7843;50.330;7.312;2022-12-18T04:08:23;-13.30;99.90
15483;DHT22;7843;50.330;7.312;2022-12-18T04:10:51;-13.30;99.90
15483;DHT22;7843;50.330;7.312;2022-12-18T04:13:28;-13.30;99.90
15483;DHT22;7843;50.330;7.312;2022-12-18T04:15:55;-13.30;99.90
15483;DHT22;7843;50.330;7.312;2022-12-18T04:18:22;-13.30;99.90
15483;DHT22;7843;50.330;7.312;2022-12-18T04:20:48;-13.30;99.90
15483;DHT22;7843;50.330;7.312;2022-12-18T04:23:15;-13.30;99.90
15483;DHT22;7843;50.330;7.312;2022-12-18T04:25:42;-13.30;99.90
15483;DHT22;7843;50.330;7.312;2022-12-18T04:28:08;-13.40;99.90
15483;DHT22;7843;50.330;7.312;2022-12-18T04:30:35;-13.40;99.90
15483;DHT22;7843;50.330;7.312;2022-12-18T04:33:01;-13.50;99.90
15483;DHT22;7843;50.330;7.312;2022-12-18T04:35:28;-13.50;99.90
15483;DHT22;7843;50.330;7.312;2022-12-18T04:37:55;-13.50;99.90
15483;DHT22;7843;50.330;7.312;2022-12-18T04:40:21;-13.50;99.90
15483;DHT22;7843;50.330;7.312;2022-12-18T04:42:48;-13.50;99.90
15483;DHT22;7843;50.330;7.312;2022-12-18T04:45:15;-13.40;99.90
15483;DHT22;7843;50.330;7.312;2022-12-18T04:47:41;-13.30;99.90
15483;DHT22;7843;50.330;7.312;2022-12-18T04:50:08;-13.30;99.90
15483;DHT22;7843;50.330;7.312;2022-12-18T04:52:35;-13.40;99.90
15483;DHT22;7843;50.330;7.312;2022-12-18T04:55:02;-13.30;99.90
15483;DHT22;7843;50.330;7.312;2022-12-18T04:57:28;-13.30;99.90
15483;DHT22;7843;50.330;7.312;2022-12-18T04:59:55;-13.30;99.90
15483;DHT22;7843;50.330;7.312;2022-12-18T05:02:22;-13.40;99.90
15483;DHT22;7843;50.330;7.312;2022-12-18T05:04:48;-13.40;99.90
15483;DHT22;7843;50.330;7.312;2022-12-18T05:07:15;-13.30;99.90
15483;DHT22;7843;50.330;7.312;2022-12-18T05:09:42;-13.30;99.90
15483;DHT22;7843;50.330;7.312;2022-12-18T05:12:08;-13.40;99.90
15483;DHT22;7843;50.330;7.312;2022-12-18T05:14:35;-13.40;99.90
15483;DHT22;7843;50.330;7.312;2022-12-18T05:17:02;-13.40;99.90
15483;DHT22;7843;50.330;7.312;2022-12-18T05:19:28;-13.40;99.90
15483;DHT22;7843;50.330;7.312;2022-12-18T05:21:55;-13.40;99.90
15483;DHT22;7843;50.330;7.312;2022-12-18T05:24:22;-13.40;99.90
15483;DHT22;7843;50.330;7.312;2022-12-18T05:26:48;-13.50;99.80
15483;DHT22;7843;50.330;7.312;2022-12-18T05:29:15;-13.50;99.70
15483;DHT22;7843;50.330;7.312;2022-12-18T05:31:41;-13.50;99.90
15483;DHT22;7843;50.330;7.312;2022-12-18T05:34:08;-13.50;99.90
15483;DHT22;7843;50.330;7.312;2022-12-18T05:36:35;-13.60;99.90
15483;DHT22;7843;50.330;7.312;2022-12-18T05:39:02;-13.50;99.90
15483;DHT22;7843;50.330;7.312;2022-12-18T05:41:28;-13.50;99.90
15483;DHT22;7843;50.330;7.312;2022-12-18T05:43:55;-13.40;99.90
15483;DHT22;7843;50.330;7.312;2022-12-18T05:46:22;-13.40;99.90
15483;DHT22;7843;50.330;7.312;2022-12-18T05:48:48;-13.30;99.90
15483;DHT22;7843;50.330;7.312;2022-12-18T05:51:19;-13.30;99.90
15483;DHT22;7843;50.330;7.312;2022-12-18T05:53:47;-13.30;99.90
15483;DHT22;7843;50.330;7.312;2022-12-18T05:56:17;-13.30;99.90
15483;DHT22;7843;50.330;7.312;2022-12-18T05:58:45;-13.30;99.90
15483;DHT22;7843;50.330;7.312;2022-12-18T06:01:18;-13.30;99.90
15483;DHT22;7843;50.330;7.312;2022-12-18T06:03:46;-13.30;99.90
15483;DHT22;7843;50.330;7.312;2022-12-18T06:06:33;-13.40;99.90
15483;DHT22;7843;50.330;7.312;2022-12-18T06:08:59;-13.40;99.90
15483;DHT22;7843;50.330;7.312;2022-12-18T06:11:27;-13.30;99.90
15483;DHT22;7843;50.330;7.312;2022-12-18T06:13:55;-13.30;99.90
15483;DHT22;7843;50.330;7.312;2022-12-18T06:16:24;-13.30;99.90
15483;DHT22;7843;50.330;7.312;2022-12-18T06:18:50;-13.30;99.90
15483;DHT22;7843;50.330;7.312;2022-12-18T06:21:17;-13.30;99.90
15483;DHT22;7843;50.330;7.312;2022-12-18T06:23:43;-13.30;99.90
15483;DHT22;7843;50.330;7.312;2022-12-18T06:26:11;-13.30;99.90
15483;DHT22;7843;50.330;7.312;2022-12-18T06:28:39;-13.30;99.90
15483;DHT22;7843;50.330;7.312;2022-12-18T06:31:06;-13.30;99.90
15483;DHT22;7843;50.330;7.312;2022-12-18T06:33:34;-13.40;99.90
15483;DHT22;7843;50.330;7.312;2022-12-18T06:36:09;-13.40;99.90
15483;DHT22;7843;50.330;7.312;2022-12-18T06:38:39;-13.40;99.90
15483;DHT22;7843;50.330;7.312;2022-12-18T06:41:08;-13.40;99.90
15483;DHT22;7843;50.330;7.312;2022-12-18T06:43:34;-13.50;99.90
15483;DHT22;7843;50.330;7.312;2022-12-18T06:46:03;-13.50;99.90
15483;DHT22;7843;50.330;7.312;2022-12-18T06:48:30;-13.50;99.90
15483;DHT22;7843;50.330;7.312;2022-12-18T06:50:57;-13.40;99.90
15483;DHT22;7843;50.330;7.312;2022-12-18T06:53:24;-13.50;99.90
15483;DHT22;7843;50.330;7.312;2022-12-18T06:55:50;-13.50;99.90
15483;DHT22;7843;50.330;7.312;2022-12-18T06:58:17;-13.60;99.90
15483;DHT22;7843;50.330;7.312;2022-12-18T07:00:44;-13.60;99.90
15483;DHT22;7843;50.330;7.312;2022-12-18T07:03:10;-13.70;99.80
15483;DHT22;7843;50.330;7.312;2022-12-18T07:05:40;-13.80;99.60
15483;DHT22;7843;50.330;7.312;2022-12-18T07:08:07;-13.80;99.50
15483;DHT22;7843;50.330;7.312;2022-12-18T07:10:41;-13.80;99.50
15483;DHT22;7843;50.330;7.312;2022-12-18T07:13:11;-13.80;99.50
15483;DHT22;7843;50.330;7.312;2022-12-18T07:15:38;-13.80;99.90
15483;DHT22;7843;50.330;7.312;2022-12-18T07:18:04;-13.80;99.90
15483;DHT22;7843;50.330;7.312;2022-12-18T07:20:31;-13.70;99.90
15483;DHT22;7843;50.330;7.312;2022-12-18T07:22:58;-13.70;99.90
15483;DHT22;7843;50.330;7.312;2022-12-18T07:25:24;-13.50;99.90
15483;DHT22;7843;50.330;7.312;2022-12-18T07:27:51;-13.50;99.90
15483;DHT22;7843;50.330;7.312;2022-12-18T07:30:18;-13.40;99.90
15483;DHT22;7843;50.330;7.312;2022-12-18T07:32:44;-13.40;99.90
15483;DHT22;7843;50.330;7.312;2022-12-18T07:35:11;-13.30;99.90
15483;DHT22;7843;50.330;7.312;2022-12-18T07:37:37;-13.30;99.90
15483;DHT22;7843;50.330;7.312;2022-12-18T07:40:04;-13.30;99.90
15483;DHT22;7843;50.330;7.312;2022-12-18T07:42:32;-13.30;99.90
15483;DHT22;7843;50.330;7.312;2022-12-18T07:44:59;-13.30;99.90
15483;DHT22;7843;50.330;7.312;2022-12-18T07:47:27;-13.20;99.90
15483;DHT22;7843;50.330;7.312;2022-12-18T07:49:54;-13.20;99.90
15483;DHT22;7843;50.330;7.312;2022-12-18T07:52:21;-13.20;99.90
15483;DHT22;7843;50.330;7.312;2022-12-18T07:54:51;-13.10;99.90
15483;DHT22;7843;50.330;7.312;2022-12-18T07:57:17;-13.10;99.90
15483;DHT22;7843;50.330;7.312;2022-12-18T07:59:59;-13.10;99.90
15483;DHT22;7843;50.330;7.312;2022-12-18T08:02:26;-13.10;99.90
15483;DHT22;7843;50.330;7.312;2022-12-18T08:04:52;-13.10;99.90
15483;DHT22;7843;50.330;7.312;2022-12-18T08:07:19;-13.00;99.90
15483;DHT22;7843;50.330;7.312;2022-12-18T08:09:46;-13.00;99.90
15483;DHT22;7843;50.330;7.312;2022-12-18T08:12:12;-12.90;99.90
15483;DHT22;7843;50.330;7.312;2022-12-18T08:14:39;-12.80;99.90
15483;DHT22;7843;50.330;7.312;2022-12-18T08:17:06;-12.70;99.90
15483;DHT22;7843;50.330;7.312;2022-12-18T08:19:32;-12.50;99.90
15483;DHT22;7843;50.330;7.312;2022-12-18T08:21:59;-12.50;99.90
15483;DHT22;7843;50.330;7.312;2022-12-18T08:24:26;-12.40;99.90
15483;DHT22;7843;50.330;7.312;2022-12-18T08:26:52;-12.30;99.90
15483;DHT22;7843;50.330;7.312;2022-12-18T08:29:32;-12.20;99.90
15483;DHT22;7843;50.330;7.312;2022-12-18T08:32:00;-12.10;99.90
15483;DHT22;7843;50.330;7.312;2022-12-18T08:34:26;-12.10;99.90
15483;DHT22;7843;50.330;7.312;2022-12-18T08:36:53;-12.00;99.90
15483;DHT22;7843;50.330;7.312;2022-12-18T08:39:20;-11.90;99.90
15483;DHT22;7843;50.330;7.312;2022-12-18T08:41:46;-11.80;99.90
15483;DHT22;7843;50.330;7.312;2022-12-18T08:44:35;-11.70;99.90
15483;DHT22;7843;50.330;7.312;2022-12-18T08:47:06;-11.70;99.90
15483;DHT22;7843;50.330;7.312;2022-12-18T08:49:33;-11.60;99.90
15483;DHT22;7843;50.330;7.312;2022-12-18T08:52:01;-11.60;99.90
15483;DHT22;7843;50.330;7.312;2022-12-18T08:54:29;-11.50;99.80
15483;DHT22;7843;50.330;7.312;2022-12-18T08:56:55;-11.60;99.70
15483;DHT22;7843;50.330;7.312;2022-12-18T08:59:22;-11.60;99.70
15483;DHT22;7843;50.330;7.312;2022-12-18T09:01:49;-11.60;99.80
15483;DHT22;7843;50.330;7.312;2022-12-18T09:04:16;-11.50;99.90
15483;DHT22;7843;50.330;7.312;2022-12-18T09:06:43;-11.50;99.90
15483;DHT22;7843;50.330;7.312;2022-12-18T09:09:10;-11.40;99.90
15483;DHT22;7843;50.330;7.312;2022-12-18T09:11:37;-11.30;99.90
15483;DHT22;7843;50.330;7.312;2022-12-18T09:14:04;-11.10;99.90
15483;DHT22;7843;50.330;7.312;2022-12-18T09:16:32;-11.00;99.90
15483;DHT22;7843;50.330;7.312;2022-12-18T09:19:02;-10.80;99.90
15483;DHT22;7843;50.330;7.312;2022-12-18T09:21:32;-10.70;99.90
15483;DHT22;7843;50.330;7.312;2022-12-18T09:23:59;-10.50;99.90
15483;DHT22;7843;50.330;7.312;2022-12-18T09:26:27;-10.40;99.90
15483;DHT22;7843;50.330;7.312;2022-12-18T09:28:53;-10.40;99.90
15483;DHT22;7843;50.330;7.312;2022-12-18T09:31:22;-10.30;99.90
15483;DHT22;7843;50.330;7.312;2022-12-18T09:33:49;-10.30;99.90
15483;DHT22;7843;50.330;7.312;2022-12-18T09:36:18;-10.10;99.90
15483;DHT22;7843;50.330;7.312;2022-12-18T09:38:45;-10.00;99.90
15483;DHT22;7843;50.330;7.312;2022-12-18T09:41:33;-9.80;99.90
15483;DHT22;7843;50.330;7.312;2022-12-18T09:44:33;-9.60;99.90
15483;DHT22;7843;50.330;7.312;2022-12-18T09:47:40;-9.40;99.90
15483;DHT22;7843;50.330;7.312;2022-12-18T09:50:29;-9.30;99.90
15483;DHT22;7843;50.330;7.312;2022-12-18T09:53:02;-9.10;99.90
15483;DHT22;7843;50.330;7.312;2022-12-18T09:55:36;-8.90;99.90
15483;DHT22;7843;50.330;7.312;2022-12-18T10:00:39;-8.60;99.90
15483;DHT22;7843;50.330;7.312;2022-12-18T10:03:14;-8.60;99.90
15483;DHT22;7843;50.330;7.312;2022-12-18T10:17:42;-8.10;99.90
15483;DHT22;7843;50.330;7.312;2022-12-18T10:20:18;-8.00;99.80
15483;DHT22;7843;50.330;7.312;2022-12-18T10:23:17;-8.00;99.70
15483;DHT22;7843;50.330;7.312;2022-12-18T10:26:04;-7.90;99.70
15483;DHT22;7843;50.330;7.312;2022-12-18T10:28:33;-7.90;99.50
15483;DHT22;7843;50.330;7.312;2022-12-18T10:31:01;-7.80;99.50
15483;DHT22;7843;50.330;7.312;2022-12-18T10:33:30;-7.70;99.40
15483;DHT22;7843;50.330;7.312;2022-12-18T10:35:59;-7.70;99.80
15483;DHT22;7843;50.330;7.312;2022-12-18T10:38:28;-7.50;99.90
15483;DHT22;7843;50.330;7.312;2022-12-18T10:41:06;-7.40;99.90
15483;DHT22;7843;50.330;7.312;2022-12-18T10:43:39;-7.30;99.90
15483;DHT22;7843;50.330;7.312;2022-12-18T10:51:32;-7.10;99.70
15483;DHT22;7843;50.330;7.312;2022-12-18T10:54:13;-7.00;99.50
15483;DHT22;7843;50.330;7.312;2022-12-18T10:56:41;-7.00;99.50
15483;DHT22;7843;50.330;7.312;2022-12-18T10:59:10;-6.90;99.50
15483;DHT22;7843;50.330;7.312;2022-12-18T11:04:22;-6.70;99.60
15483;DHT22;7843;50.330;7.312;2022-12-18T11:09:24;-6.50;99.60
15483;DHT22;7843;50.330;7.312;2022-12-18T11:11:56;-6.50;99.70
15483;DHT22;7843;50.330;7.312;2022-12-18T11:16:58;-6.30;99.70
15483;DHT22;7843;50.330;7.312;2022-12-18T11:19:53;-6.20;99.70
15483;DHT22;7843;50.330;7.312;2022-12-18T11:22:29;-6.10;99.60
15483;DHT22;7843;50.330;7.312;2022-12-18T11:25:02;-6.10;99.60
15483;DHT22;7843;50.330;7.312;2022-12-18T11:34:10;-5.90;99.40
15483;DHT22;7843;50.330;7.312;2022-12-18T11:36:54;-5.80;99.50
15483;DHT22;7843;50.330;7.312;2022-12-18T11:39:52;-5.70;99.10
15483;DHT22;7843;50.330;7.312;2022-12-18T11:45:27;-5.60;99.10
15483;DHT22;7843;50.330;7.312;2022-12-18T11:47:59;-5.40;98.70
15483;DHT22;7843;50.330;7.312;2022-12-18T11:53:03;-5.30;98.60
15483;DHT22;7843;50.330;7.312;2022-12-18T12:01:21;-5.20;98.80
15483;DHT22;7843;50.330;7.312;2022-12-18T12:07:00;-4.90;98.70
15483;DHT22;7843;50.330;7.312;2022-12-18T12:09:46;-4.80;98.50
15483;DHT22;7843;50.330;7.312;2022-12-18T12:12:30;-4.80;98.60
15483;DHT22;7843;50.330;7.312;2022-12-18T12:26:08;-4.60;98.50
15483;DHT22;7843;50.330;7.312;2022-12-18T12:34:19;-4.40;98.50
15483;DHT22;7843;50.330;7.312;2022-12-18T12:37:00;-4.40;98.40
15483;DHT22;7843;50.330;7.312;2022-12-18T12:39:36;-4.40;98.50
15483;DHT22;7843;50.330;7.312;2022-12-18T12:42:34;-4.40;98.70
15483;DHT22;7843;50.330;7.312;2022-12-18T12:45:28;-4.50;98.80
15483;DHT22;7843;50.330;7.312;2022-12-18T12:47:57;-4.50;98.90
15483;DHT22;7843;50.330;7.312;2022-12-18T12:50:25;-4.60;98.80
15483;DHT22;7843;50.330;7.312;2022-12-18T12:52:54;-4.60;99.10
15483;DHT22;7843;50.330;7.312;2022-12-18T12:55:25;-4.50;99.00
15483;DHT22;7843;50.330;7.312;2022-12-18T13:00:25;-4.50;98.40
15483;DHT22;7843;50.330;7.312;2022-12-18T13:03:18;-4.50;98.20
15483;DHT22;7843;50.330;7.312;2022-12-18T13:05:54;-4.60;98.50
15483;DHT22;7843;50.330;7.312;2022-12-18T13:08:25;-4.60;98.70
15483;DHT22;7843;50.330;7.312;2022-12-18T13:10:54;-4.50;99.10
15483;DHT22;7843;50.330;7.312;2022-12-18T13:13:53;-4.50;99.40
15483;DHT22;7843;50.330;7.312;2022-12-18T13:16:22;-4.40;99.70
15483;DHT22;7843;50.330;7.312;2022-12-18T13:18:54;-4.40;99.80
15483;DHT22;7843;50.330;7.312;2022-12-18T13:23:54;-4.40;99.80
15483;DHT22;7843;50.330;7.312;2022-12-18T13:28:54;-4.30;99.80
15483;DHT22;7843;50.330;7.312;2022-12-18T13:34:26;-4.40;98.80
15483;DHT22;7843;50.330;7.312;2022-12-18T13:36:55;-4.40;98.80
15483;DHT22;7843;50.330;7.312;2022-12-18T13:39:33;-4.30;98.90
15483;DHT22;7843;50.330;7.312;2022-12-18T13:44:36;-4.40;99.30
15483;DHT22;7843;50.330;7.312;2022-12-18T13:47:32;-4.40;99.70
15483;DHT22;7843;50.330;7.312;2022-12-18T13:50:02;-4.40;99.90
15483;DHT22;7843;50.330;7.312;2022-12-18T13:52:37;-4.40;99.90
15483;DHT22;7843;50.330;7.312;2022-12-18T13:55:14;-4.40;99.90
15483;DHT22;7843;50.330;7.312;2022-12-18T13:57:42;-4.50;99.90
15483;DHT22;7843;50.330;7.312;2022-12-18T14:02:50;-4.50;99.90
15483;DHT22;7843;50.330;7.312;2022-12-18T14:05:23;-4.50;99.90
15483;DHT22;7843;50.330;7.312;2022-12-18T14:07:50;-4.50;99.90
15483;DHT22;7843;50.330;7.312;2022-12-18T14:10:17;-4.50;99.90
15483;DHT22;7843;50.330;7.312;2022-12-18T14:13:06;-4.50;99.90
15483;DHT22;7843;50.330;7.312;2022-12-18T14:15:40;-4.50;99.90
15483;DHT22;7843;50.330;7.312;2022-12-18T14:18:34;-4.60;99.90
15483;DHT22;7843;50.330;7.312;2022-12-18T14:21:04;-4.60;99.90
15483;DHT22;7843;50.330;7.312;2022-12-18T14:23:36;-4.60;99.90
15483;DHT22;7843;50.330;7.312;2022-12-18T14:26:20;-4.60;99.90
15483;DHT22;7843;50.330;7.312;2022-12-18T14:28:47;-4.70;99.90
15483;DHT22;7843;50.330;7.312;2022-12-18T14:31:22;-4.60;99.90
15483;DHT22;7843;50.330;7.312;2022-12-18T14:33:49;-4.70;99.90
15483;DHT22;7843;50.330;7.312;2022-12-18T14:36:25;-4.80;99.90
15483;DHT22;7843;50.330;7.312;2022-12-18T14:38:57;-4.90;99.90
15483;DHT22;7843;50.330;7.312;2022-12-18T14:41:24;-4.90;99.90
15483;DHT22;7843;50.330;7.312;2022-12-18T14:43:53;-4.90;99.90
15483;DHT22;7843;50.330;7.312;2022-12-18T14:51:52;-5.00;99.90
15483;DHT22;7843;50.330;7.312;2022-12-18T14:54:20;-5.00;99.90
15483;DHT22;7843;50.330;7.312;2022-12-18T14:56:49;-5.10;99.90
15483;DHT22;7843;50.330;7.312;2022-12-18T14:59:21;-5.10;99.90
15483;DHT22;7843;50.330;7.312;2022-12-18T15:02:27;-5.10;99.90
15483;DHT22;7843;50.330;7.312;2022-12-18T15:07:43;-5.20;99.90
15483;DHT22;7843;50.330;7.312;2022-12-18T15:13:06;-5.30;99.90
15483;DHT22;7843;50.330;7.312;2022-12-18T15:18:00;-5.30;99.90
15483;DHT22;7843;50.330;7.312;2022-12-18T15:20:30;-5.40;99.90
15483;DHT22;7843;50.330;7.312;2022-12-18T15:22:57;-5.30;99.90
15483;DHT22;7843;50.330;7.312;2022-12-18T15:25:36;-5.30;99.90
15483;DHT22;7843;50.330;7.312;2022-12-18T15:28:04;-5.30;99.90
15483;DHT22;7843;50.330;7.312;2022-12-18T15:33:35;-5.30;99.90
15483;DHT22;7843;50.330;7.312;2022-12-18T15:36:11;-5.30;99.90
15483;DHT22;7843;50.330;7.312;2022-12-18T15:38:38;-5.30;99.90
15483;DHT22;7843;50.330;7.312;2022-12-18T15:41:05;-5.30;99.90
15483;DHT22;7843;50.330;7.312;2022-12-18T15:43:37;-5.40;99.90
15483;DHT22;7843;50.330;7.312;2022-12-18T15:46:15;-5.40;99.90
15483;DHT22;7843;50.330;7.312;2022-12-18T15:48:51;-5.40;99.90
15483;DHT22;7843;50.330;7.312;2022-12-18T15:51:25;-5.40;99.90
15483;DHT22;7843;50.330;7.312;2022-12-18T15:53:55;-5.40;99.90
15483;DHT22;7843;50.330;7.312;2022-12-18T15:56:23;-5.40;99.90
15483;DHT22;7843;50.330;7.312;2022-12-18T15:59:15;-5.40;99.90
15483;DHT22;7843;50.330;7.312;2022-12-18T16:01:48;-5.40;99.90
15483;DHT22;7843;50.330;7.312;2022-12-18T16:04:17;-5.40;99.90
15483;DHT22;7843;50.330;7.312;2022-12-18T16:06:47;-5.40;99.90
15483;DHT22;7843;50.330;7.312;2022-12-18T16:09:34;-5.40;99.90
15483;DHT22;7843;50.330;7.312;2022-12-18T16:12:01;-5.40;99.90
15483;DHT22;7843;50.330;7.312;2022-12-18T16:14:29;-5.40;99.90
15483;DHT22;7843;50.330;7.312;2022-12-18T16:17:01;-5.50;99.90
15483;DHT22;7843;50.330;7.312;2022-12-18T16:19:29;-5.50;99.90
15483;DHT22;7843;50.330;7.312;2022-12-18T16:21:57;-5.50;99.90
15483;DHT22;7843;50.330;7.312;2022-12-18T16:24:26;-5.50;99.90
15483;DHT22;7843;50.330;7.312;2022-12-18T16:26:54;-5.60;99.90
15483;DHT22;7843;50.330;7.312;2022-12-18T16:29:21;-5.60;99.90
15483;DHT22;7843;50.330;7.312;2022-12-18T16:31:51;-5.60;99.90
15483;DHT22;7843;50.330;7.312;2022-12-18T16:36:49;-5.70;99.90
15483;DHT22;7843;50.330;7.312;2022-12-18T16:39:17;-5.70;99.90
15483;DHT22;7843;50.330;7.312;2022-12-18T16:41:43;-5.70;99.90
15483;DHT22;7843;50.330;7.312;2022-12-18T16:44:10;-5.60;99.90
15483;DHT22;7843;50.330;7.312;2022-12-18T16:46:37;-5.60;99.90
15483;DHT22;7843;50.330;7.312;2022-12-18T16:49:05;-5.50;99.90
15483;DHT22;7843;50.330;7.312;2022-12-18T16:51:32;-5.50;99.90
15483;DHT22;7843;50.330;7.312;2022-12-18T16:53:58;-5.50;99.90
15483;DHT22;7843;50.330;7.312;2022-12-18T16:56:26;-5.50;99.90
15483;DHT22;7843;50.330;7.312;2022-12-18T16:58:54;-5.40;99.90
15483;DHT22;7843;50.330;7.312;2022-12-18T17:01:21;-5.40;99.90
15483;DHT22;7843;50.330;7.312;2022-12-18T17:04:00;-5.30;99.90
15483;DHT22;7843;50.330;7.312;2022-12-18T17:06:29;-5.30;99.90
15483;DHT22;7843;50.330;7.312;2022-12-18T17:09:05;-5.20;99.90
15483;DHT22;7843;50.330;7.312;2022-12-18T17:11:33;-5.20;99.90
15483;DHT22;7843;50.330;7.312;2022-12-18T17:14:27;-5.20;99.90
15483;DHT22;7843;50.330;7.312;2022-12-18T17:16:54;-5.30;99.90
15483;DHT22;7843;50.330;7.312;2022-12-18T17:19:42;-5.30;99.90
15483;DHT22;7843;50.330;7.312;2022-12-18T17:22:09;-5.30;99.90
15483;DHT22;7843;50.330;7.312;2022-12-18T17:24:35;-5.20;99.90
15483;DHT22;7843;50.330;7.312;2022-12-18T17:27:03;-5.20;99.90
15483;DHT22;7843;50.330;7.312;2022-12-18T17:29:30;-5.20;99.90
15483;DHT22;7843;50.330;7.312;2022-12-18T17:31:57;-5.20;99.90
15483;DHT22;7843;50.330;7.312;2022-12-18T17:34:23;-5.20;99.90
15483;DHT22;7843;50.330;7.312;2022-12-18T17:36:50;-5.20;99.90
15483;DHT22;7843;50.330;7.312;2022-12-18T17:39:19;-5.20;99.90
15483;DHT22;7843;50.330;7.312;2022-12-18T17:41:46;-5.20;99.90
15483;DHT22;7843;50.330;7.312;2022-12-18T17:44:13;-5.10;99.90
15483;DHT22;7843;50.330;7.312;2022-12-18T17:46:40;-5.20;99.90
15483;DHT22;7843;50.330;7.312;2022-12-18T17:49:07;-5.10;99.90
15483;DHT22;7843;50.330;7.312;2022-12-18T17:51:33;-5.10;99.90
15483;DHT22;7843;50.330;7.312;2022-12-18T17:54:00;-5.10;99.90
15483;DHT22;7843;50.330;7.312;2022-12-18T17:56:27;-5.10;99.90
15483;DHT22;7843;50.330;7.312;2022-12-18T17:58:54;-5.00;99.90
15483;DHT22;7843;50.330;7.312;2022-12-18T18:01:23;-5.00;99.90
15483;DHT22;7843;50.330;7.312;2022-12-18T18:03:50;-5.00;99.90
15483;DHT22;7843;50.330;7.312;2022-12-18T18:06:17;-5.00;99.90